createdAt,value
2022-08-17T00:01:27.476Z,97780.47
2022-08-17T00:03:54.836Z,97772.53
2022-08-17T00:06:25.030Z,97776.00
2022-08-17T00:08:56.941Z,97772.63
2022-08-17T00:11:32.573Z,97770.13
2022-08-17T00:14:05.930Z,97774.97
2022-08-17T00:16:55.756Z,97770.88
2022-08-17T00:19:24.293Z,97772.03
2022-08-17T00:22:32.436Z,97767.75
2022-08-17T00:24:39.759Z,97772.34
2022-08-17T00:27:06.188Z,97767.25
2022-08-17T00:29:32.602Z,97769.84
2022-08-17T00:31:59.051Z,97770.06
2022-08-17T00:34:25.546Z,97781.53
2022-08-17T00:36:54.433Z,97779.03
2022-08-17T00:39:21.255Z,97779.84
2022-08-17T00:41:47.821Z,97774.84
2022-08-17T00:44:15.505Z,97771.59
2022-08-17T00:46:43.594Z,97771.81
2022-08-17T00:49:11.539Z,97772.19
2022-08-17T00:51:40.902Z,97773.16
2022-08-17T00:54:18.660Z,97772.72
2022-08-17T00:56:51.213Z,97768.53
2022-08-17T00:59:20.820Z,97759.16
2022-08-17T01:01:49.313Z,97757.59
2022-08-17T01:04:18.433Z,97763.00
2022-08-17T01:06:49.398Z,97765.81
2022-08-17T01:09:17.769Z,97765.81
2022-08-17T01:11:46.140Z,97769.25
2022-08-17T01:14:13.251Z,97763.44
2022-08-17T01:16:39.873Z,97772.38
2022-08-17T01:19:16.975Z,97771.53
2022-08-17T01:21:50.224Z,97772.78
2022-08-17T01:24:17.329Z,97769.75
2022-08-17T01:26:45.551Z,97769.63
2022-08-17T01:29:12.788Z,97760.34
2022-08-17T01:31:45.446Z,97760.56
2022-08-17T01:34:14.820Z,97757.22
2022-08-17T01:36:44.605Z,97758.06
2022-08-17T01:39:21.669Z,97756.69
2022-08-17T01:41:51.186Z,97761.16
2022-08-17T01:44:17.852Z,97770.09
2022-08-17T01:46:44.330Z,97762.59
2022-08-17T01:49:12.183Z,97759.34
2022-08-17T01:51:39.670Z,97758.59
2022-08-17T01:54:11.301Z,97767.34
2022-08-17T01:56:41.269Z,97767.75
2022-08-17T01:59:07.879Z,97769.63
2022-08-17T02:01:35.422Z,97767.75
2022-08-17T02:04:02.702Z,97764.41
2022-08-17T02:06:44.797Z,97760.84
2022-08-17T02:09:16.635Z,97767.13
2022-08-17T02:11:44.968Z,97759.50
2022-08-17T02:14:12.713Z,97753.75
2022-08-17T02:16:41.133Z,97754.00
2022-08-17T02:19:11.717Z,97749.31
2022-08-17T02:21:40.142Z,97749.41
2022-08-17T02:24:10.899Z,97748.75
2022-08-17T02:26:37.563Z,97743.63
2022-08-17T02:29:04.403Z,97746.03
2022-08-17T02:31:31.361Z,97736.59
2022-08-17T02:34:03.973Z,97741.03
2022-08-17T02:36:34.114Z,97737.41
2022-08-17T02:39:06.069Z,97734.16
2022-08-17T02:41:33.070Z,97734.16
2022-08-17T02:43:59.774Z,97738.63
2022-08-17T02:46:26.536Z,97734.25
2022-08-17T02:48:53.019Z,97728.31
2022-08-17T02:51:19.623Z,97734.25
2022-08-17T02:53:46.748Z,97729.34
2022-08-17T02:56:13.357Z,97726.31
2022-08-17T02:58:39.826Z,97721.19
2022-08-17T03:01:08.722Z,97718.59
2022-08-17T03:03:37.677Z,97720.63
2022-08-17T03:06:04.574Z,97717.31
2022-08-17T03:08:31.082Z,97725.13
2022-08-17T03:10:57.559Z,97720.22
2022-08-17T03:13:24.427Z,97722.06
2022-08-17T03:15:51.448Z,97725.22
2022-08-17T03:18:25.482Z,97721.75
2022-08-17T03:20:53.311Z,97718.72
2022-08-17T03:23:23.834Z,97723.16
2022-08-17T03:25:52.906Z,97719.09
2022-08-17T03:28:21.076Z,97718.34
2022-08-17T03:30:47.596Z,97719.38
2022-08-17T03:33:14.614Z,97717.81
2022-08-17T03:35:42.065Z,97725.53
2022-08-17T03:38:11.121Z,97718.63
2022-08-17T03:40:56.648Z,97717.91
2022-08-17T03:43:25.234Z,97717.16
2022-08-17T03:46:29.009Z,97725.25
2022-08-17T03:49:15.533Z,97715.75
2022-08-17T03:52:00.432Z,97726.25
2022-08-17T03:54:45.257Z,97726.25
2022-08-17T03:57:12.479Z,97731.16
2022-08-17T03:59:40.877Z,97731.16
2022-08-17T04:02:11.441Z,97736.28
2022-08-17T04:04:38.792Z,97741.47
2022-08-17T04:07:06.163Z,97732.94
2022-08-17T04:09:32.666Z,97736.47
2022-08-17T04:12:01.334Z,97739.91
2022-08-17T04:14:36.713Z,97740.03
2022-08-17T04:17:21.281Z,97739.06
2022-08-17T04:19:47.778Z,97745.22
2022-08-17T04:22:32.233Z,97752.25
2022-08-17T04:25:07.524Z,97757.28
2022-08-17T04:27:33.992Z,97762.84
2022-08-17T04:30:01.432Z,97762.94
2022-08-17T04:32:58.557Z,97758.75
2022-08-17T04:35:18.984Z,97765.53
2022-08-17T04:37:45.539Z,97773.78
2022-08-17T04:40:31.002Z,97782.06
2022-08-17T04:43:13.405Z,97778.25
2022-08-17T04:45:51.325Z,97779.06
2022-08-17T04:48:22.824Z,97772.03
2022-08-17T04:50:55.008Z,97772.75
2022-08-17T04:53:21.752Z,97776.19
2022-08-17T04:55:51.241Z,97775.19
2022-08-17T04:58:18.052Z,97782.13
2022-08-17T05:00:44.465Z,97777.63
2022-08-17T05:03:11.438Z,97785.44
2022-08-17T05:05:43.084Z,97781.03
2022-08-17T05:08:09.667Z,97782.97
2022-08-17T05:10:38.194Z,97788.16
2022-08-17T05:13:17.862Z,97791.59
2022-08-17T05:15:47.937Z,97799.22
2022-08-17T05:18:15.647Z,97807.78
2022-08-17T05:20:43.270Z,97798.03
2022-08-17T05:23:13.333Z,97801.28
2022-08-17T05:25:47.415Z,97795.53
2022-08-17T05:28:16.324Z,97796.72
2022-08-17T05:30:44.346Z,97800.03
2022-08-17T05:33:14.222Z,97794.75
2022-08-17T05:35:44.450Z,97792.34
2022-08-17T05:38:10.948Z,97796.34
2022-08-17T05:40:38.319Z,97799.94
2022-08-17T05:43:16.308Z,97795.16
2022-08-17T05:45:55.340Z,97802.94
2022-08-17T05:48:22.473Z,97799.44
2022-08-17T05:51:15.054Z,97798.84
2022-08-17T05:54:05.332Z,97788.81
2022-08-17T05:56:47.694Z,97786.19
2022-08-17T05:59:34.451Z,97795.44
2022-08-17T06:02:05.288Z,97791.91
2022-08-17T06:04:56.127Z,97786.22
2022-08-17T06:07:25.280Z,97787.34
2022-08-17T06:10:17.242Z,97797.84
2022-08-17T06:13:18.753Z,97791.41
2022-08-17T06:15:57.337Z,97792.19
2022-08-17T06:18:28.872Z,97792.53
2022-08-17T06:21:02.655Z,97793.25
2022-08-17T06:23:54.331Z,97779.69
2022-08-17T06:26:37.374Z,97781.06
2022-08-17T06:29:37.179Z,97787.31
2022-08-17T06:32:08.420Z,97788.47
2022-08-17T06:34:37.355Z,97792.72
2022-08-17T06:37:13.110Z,97804.38
2022-08-17T06:40:10.907Z,97803.13
2022-08-17T06:43:02.630Z,97796.28
2022-08-17T06:45:41.798Z,97801.09
2022-08-17T06:48:32.635Z,97800.91
2022-08-17T06:51:25.926Z,97802.06
2022-08-17T06:54:19.517Z,97796.81
2022-08-17T06:56:59.489Z,97806.56
2022-08-17T06:59:36.245Z,97800.69
2022-08-17T07:02:51.230Z,97793.28
2022-08-17T07:05:32.085Z,97801.41
2022-08-17T07:08:35.097Z,97807.44
2022-08-17T07:11:14.405Z,97812.41
2022-08-17T07:14:07.044Z,97812.47
2022-08-17T07:16:41.067Z,97812.75
2022-08-17T07:19:10.988Z,97819.97
2022-08-17T07:21:52.561Z,97824.81
2022-08-17T07:24:37.292Z,97811.34
2022-08-17T07:27:07.032Z,97824.41
2022-08-17T07:29:42.895Z,97822.44
2022-08-17T07:32:11.233Z,97825.75
2022-08-17T07:35:00.323Z,97826.88
2022-08-17T07:37:26.965Z,97838.16
2022-08-17T07:39:59.743Z,97836.22
2022-08-17T07:42:45.086Z,97841.75
2022-08-17T07:45:34.943Z,97837.97
2022-08-17T07:48:20.112Z,97839.22
2022-08-17T07:50:49.403Z,97828.78
2022-08-17T07:53:23.204Z,97821.84
2022-08-17T07:55:51.600Z,97827.00
2022-08-17T07:58:22.267Z,97826.50
2022-08-17T08:01:08.992Z,97831.28
2022-08-17T08:03:42.561Z,97829.09
2022-08-17T08:06:24.940Z,97827.25
2022-08-17T08:08:55.238Z,97832.94
2022-08-17T08:11:34.387Z,97828.06
2022-08-17T08:14:31.100Z,97836.56
2022-08-17T08:17:09.320Z,97833.78
2022-08-17T08:19:36.580Z,97833.19
2022-08-17T08:22:12.016Z,97829.94
2022-08-17T08:25:03.139Z,97829.22
2022-08-17T08:28:01.516Z,97836.41
2022-08-17T08:30:29.850Z,97841.69
2022-08-17T08:33:34.796Z,97836.50
2022-08-17T08:37:14.274Z,97834.72
2022-08-17T08:39:29.112Z,97830.56
2022-08-17T08:42:24.413Z,97833.03
2022-08-17T08:45:08.301Z,97823.84
2022-08-17T08:47:50.755Z,97829.94
2022-08-17T08:50:37.199Z,97814.78
2022-08-17T08:53:14.806Z,97817.69
2022-08-17T08:55:59.170Z,97815.81
2022-08-17T08:58:43.818Z,97822.75
2022-08-17T09:01:38.208Z,97823.44
2022-08-17T09:04:40.744Z,97825.09
2022-08-17T09:07:41.201Z,97812.53
2022-08-17T09:10:10.620Z,97811.13
2022-08-17T09:12:49.910Z,97811.03
2022-08-17T09:15:45.075Z,97804.78
2022-08-17T09:19:02.745Z,97811.88
2022-08-17T09:21:33.642Z,97811.91
2022-08-17T09:24:24.158Z,97807.53
2022-08-17T09:27:05.023Z,97806.81
2022-08-17T09:29:36.503Z,97799.78
2022-08-17T09:32:21.870Z,97796.34
2022-08-17T09:34:53.582Z,97791.75
2022-08-17T09:37:29.435Z,97794.06
2022-08-17T09:39:58.980Z,97795.09
2022-08-17T09:42:59.469Z,97789.31
2022-08-17T09:45:35.811Z,97785.81
2022-08-17T09:48:10.736Z,97788.09
2022-08-17T09:51:05.341Z,97794.88
2022-08-17T09:53:32.159Z,97784.44
2022-08-17T09:56:23.947Z,97780.13
2022-08-17T09:59:16.878Z,97778.91
2022-08-17T10:02:03.545Z,97781.78
2022-08-17T10:04:47.235Z,97787.75
2022-08-17T10:07:19.787Z,97780.13
2022-08-17T10:09:46.158Z,97778.47
2022-08-17T10:12:29.977Z,97773.13
2022-08-17T10:15:37.313Z,97780.56
2022-08-17T10:18:30.396Z,97775.19
2022-08-17T10:21:34.266Z,97768.38
2022-08-17T10:24:26.186Z,97770.88
2022-08-17T10:26:56.801Z,97769.44
2022-08-17T10:29:54.220Z,97771.06
2022-08-17T10:32:38.380Z,97766.53
2022-08-17T10:35:28.389Z,97760.41
2022-08-17T10:38:16.796Z,97757.91
2022-08-17T10:41:02.323Z,97764.28
2022-08-17T10:43:44.696Z,97763.28
2022-08-17T10:46:56.283Z,97761.63
2022-08-17T10:49:26.542Z,97761.22
2022-08-17T10:51:55.835Z,97769.84
2022-08-17T10:54:25.356Z,97764.50
2022-08-17T10:56:54.600Z,97765.94
2022-08-17T10:59:36.396Z,97771.66
2022-08-17T11:02:23.165Z,97782.53
2022-08-17T11:05:15.680Z,97781.34
2022-08-17T11:08:13.148Z,97779.09
2022-08-17T11:10:49.938Z,97782.53
2022-08-17T11:13:27.977Z,97784.13
2022-08-17T11:16:17.491Z,97776.53
2022-08-17T11:19:14.985Z,97774.91
2022-08-17T11:21:51.986Z,97766.53
2022-08-17T11:24:35.386Z,97754.22
2022-08-17T11:27:25.370Z,97768.81
2022-08-17T11:30:12.142Z,97769.44
2022-08-17T11:32:52.908Z,97767.16
2022-08-17T11:35:20.976Z,97760.97
2022-08-17T11:38:02.966Z,97773.31
2022-08-17T11:41:01.034Z,97776.56
2022-08-17T11:43:58.696Z,97766.34
2022-08-17T11:46:56.319Z,97775.00
2022-08-17T11:50:15.931Z,97766.38
2022-08-17T11:52:48.123Z,97773.38
2022-08-17T11:55:38.194Z,97781.56
2022-08-17T11:58:29.002Z,97781.13
2022-08-17T12:01:00.854Z,97777.78
2022-08-17T12:03:33.517Z,97778.81
2022-08-17T12:06:30.751Z,97777.13
2022-08-17T12:09:10.279Z,97769.34
2022-08-17T12:12:11.042Z,97767.91
2022-08-17T12:15:08.020Z,97777.38
2022-08-17T12:17:39.259Z,97777.63
2022-08-17T12:20:23.222Z,97769.44
2022-08-17T12:23:13.880Z,97769.44
2022-08-17T12:25:51.345Z,97765.53
2022-08-17T12:28:43.822Z,97754.63
2022-08-17T12:31:24.709Z,97747.03
2022-08-17T12:33:52.184Z,97753.41
2022-08-17T12:36:28.769Z,97744.78
2022-08-17T12:39:14.248Z,97750.53
2022-08-17T12:41:47.883Z,97754.03
2022-08-17T12:44:16.680Z,97763.47
2022-08-17T12:46:59.396Z,97750.88
2022-08-17T12:49:29.815Z,97755.25
2022-08-17T12:52:12.395Z,97744.63
2022-08-17T12:54:41.904Z,97745.09
2022-08-17T12:57:15.950Z,97743.06
2022-08-17T12:59:46.598Z,97743.88
2022-08-17T13:02:24.519Z,97743.91
2022-08-17T13:04:51.092Z,97748.22
2022-08-17T13:07:35.167Z,97745.75
2022-08-17T13:10:01.930Z,97741.03
2022-08-17T13:12:31.653Z,97739.03
2022-08-17T13:14:58.804Z,97742.72
2022-08-17T13:17:28.375Z,97743.72
2022-08-17T13:19:55.012Z,97743.31
2022-08-17T13:22:24.309Z,97746.38
2022-08-17T13:24:54.589Z,97747.16
2022-08-17T13:27:24.077Z,97744.66
2022-08-17T13:29:55.718Z,97739.72
2022-08-17T13:32:37.200Z,97739.66
2022-08-17T13:35:39.186Z,97732.25
2022-08-17T13:38:12.994Z,97741.34
2022-08-17T13:40:50.808Z,97748.06
2022-08-17T13:43:50.567Z,97741.72
2022-08-17T13:46:29.367Z,97746.06
2022-08-17T13:49:05.999Z,97745.66
2022-08-17T13:51:36.193Z,97744.00
2022-08-17T13:54:05.472Z,97745.38
2022-08-17T13:56:46.664Z,97746.81
2022-08-17T13:59:55.230Z,97741.03
2022-08-17T14:02:26.091Z,97741.03
2022-08-17T14:04:56.301Z,97744.47
2022-08-17T14:07:27.877Z,97738.72
2022-08-17T14:10:17.845Z,97739.88
2022-08-17T14:12:45.449Z,97735.16
2022-08-17T14:15:15.519Z,97722.56
2022-08-17T14:17:42.075Z,97728.78
2022-08-17T14:20:11.731Z,97721.84
2022-08-17T14:22:42.891Z,97718.38
2022-08-17T14:25:13.066Z,97714.47
2022-08-17T14:27:51.883Z,97715.66
2022-08-17T14:30:21.738Z,97724.06
2022-08-17T14:32:49.041Z,97715.31
2022-08-17T14:35:16.240Z,97714.88
2022-08-17T14:37:44.737Z,97720.66
2022-08-17T14:40:13.464Z,97721.25
2022-08-17T14:42:42.155Z,97730.06
2022-08-17T14:45:30.324Z,97733.31
2022-08-17T14:47:56.871Z,97726.34
2022-08-17T14:50:24.332Z,97715.78
2022-08-17T14:52:59.205Z,97713.06
2022-08-17T14:55:29.749Z,97706.84
2022-08-17T14:57:56.669Z,97709.72
2022-08-17T15:00:23.373Z,97701.84
2022-08-17T15:02:58.438Z,97706.75
2022-08-17T15:05:30.535Z,97710.22
2022-08-17T15:07:57.972Z,97706.31
2022-08-17T15:10:25.830Z,97704.44
2022-08-17T15:12:53.233Z,97709.50
2022-08-17T15:15:20.192Z,97701.66
2022-08-17T15:17:46.739Z,97708.44
2022-08-17T15:20:20.674Z,97709.31
2022-08-17T15:22:55.166Z,97710.63
2022-08-17T15:25:22.391Z,97712.13
2022-08-17T15:27:49.202Z,97713.22
2022-08-17T15:30:16.163Z,97706.19
2022-08-17T15:32:51.387Z,97707.31
2022-08-17T15:35:27.975Z,97712.22
2022-08-17T15:37:57.463Z,97712.47
2022-08-17T15:40:25.092Z,97712.50
2022-08-17T15:42:51.597Z,97716.41
2022-08-17T15:45:22.459Z,97715.41
2022-08-17T15:47:53.263Z,97723.59
2022-08-17T15:50:19.862Z,97715.63
2022-08-17T15:52:47.497Z,97713.31
2022-08-17T15:55:15.270Z,97726.66
2022-08-17T15:57:42.142Z,97728.09
2022-08-17T16:00:10.175Z,97724.34
2022-08-17T16:03:44.760Z,97726.06
2022-08-17T16:05:28.581Z,97717.81
2022-08-17T16:07:58.584Z,97722.38
2022-08-17T16:10:35.494Z,97725.75
2022-08-17T16:13:03.609Z,97722.63
2022-08-17T16:15:33.516Z,97721.78
2022-08-17T16:17:59.960Z,97725.47
2022-08-17T16:20:26.647Z,97719.63
2022-08-17T16:22:54.163Z,97719.19
2022-08-17T16:25:49.694Z,97726.84
2022-08-17T16:28:12.237Z,97723.56
2022-08-17T16:30:38.654Z,97723.56
2022-08-17T16:33:05.723Z,97726.84
2022-08-17T16:35:32.288Z,97726.84
2022-08-17T16:37:58.987Z,97723.38
2022-08-17T16:40:27.692Z,97729.31
2022-08-17T16:42:55.469Z,97722.84
2022-08-17T16:45:28.652Z,97718.41
2022-08-17T16:48:01.520Z,97712.81
2022-08-17T16:50:28.149Z,97713.97
2022-08-17T16:53:17.070Z,97709.44
2022-08-17T16:55:48.121Z,97698.66
2022-08-17T16:58:15.733Z,97706.16
2022-08-17T17:00:44.067Z,97702.00
2022-08-17T17:03:19.090Z,97704.25
2022-08-17T17:06:17.153Z,97698.94
2022-08-17T17:08:59.055Z,97692.53
2022-08-17T17:11:50.939Z,97689.22
2022-08-17T17:14:28.334Z,97695.13
2022-08-17T17:17:06.078Z,97690.03
2022-08-17T17:20:00.527Z,97687.88
2022-08-17T17:22:30.439Z,97695.38
2022-08-17T17:25:07.031Z,97698.91
2022-08-17T17:27:58.833Z,97683.00
2022-08-17T17:30:44.571Z,97686.19
2022-08-17T17:33:14.875Z,97684.25
2022-08-17T17:35:54.933Z,97680.13
2022-08-17T17:38:45.632Z,97679.50
2022-08-17T17:41:25.841Z,97683.66
2022-08-17T17:44:01.837Z,97672.25
2022-08-17T17:46:37.946Z,97675.41
2022-08-17T17:49:06.037Z,97675.13
2022-08-17T17:52:07.873Z,97682.75
2022-08-17T17:54:35.357Z,97672.22
2022-08-17T17:57:11.531Z,97672.69
2022-08-17T17:59:54.272Z,97668.22
2022-08-17T18:02:52.061Z,97673.19
2022-08-17T18:05:34.340Z,97673.69
2022-08-17T18:08:11.059Z,97675.50
2022-08-17T18:11:04.987Z,97669.22
2022-08-17T18:13:53.538Z,97667.03
2022-08-17T18:16:20.236Z,97660.72
2022-08-17T18:18:48.121Z,97660.22
2022-08-17T18:21:19.373Z,97658.56
2022-08-17T18:23:54.706Z,97659.50
2022-08-17T18:26:35.207Z,97650.91
2022-08-17T18:29:25.670Z,97656.94
2022-08-17T18:32:27.902Z,97652.59
2022-08-17T18:35:21.386Z,97649.38
2022-08-17T18:37:51.366Z,97652.94
2022-08-17T18:40:20.846Z,97647.44
2022-08-17T18:42:50.269Z,97650.88
2022-08-17T18:45:33.902Z,97658.88
2022-08-17T18:48:00.509Z,97655.81
2022-08-17T18:50:41.104Z,97659.53
2022-08-17T18:53:30.192Z,97662.72
2022-08-17T18:56:25.225Z,97660.44
2022-08-17T18:59:00.401Z,97670.41
2022-08-17T19:01:47.004Z,97670.69
2022-08-17T19:04:34.011Z,97677.06
2022-08-17T19:07:08.997Z,97671.38
2022-08-17T19:09:41.988Z,97680.50
2022-08-17T19:12:13.484Z,97677.91
2022-08-17T19:14:40.377Z,97681.56
2022-08-17T19:17:16.414Z,97678.59
2022-08-17T19:19:56.311Z,97676.41
2022-08-17T19:23:05.812Z,97667.56
2022-08-17T19:25:40.802Z,97679.75
2022-08-17T19:28:22.413Z,97676.19
2022-08-17T19:30:54.824Z,97687.97
2022-08-17T19:33:21.515Z,97673.16
2022-08-17T19:35:54.038Z,97680.25
2022-08-17T19:38:35.557Z,97682.34
2022-08-17T19:41:14.401Z,97678.63
2022-08-17T19:43:54.170Z,97681.53
2022-08-17T19:47:00.909Z,97668.53
2022-08-17T19:49:48.920Z,97672.16
2022-08-17T19:52:21.425Z,97674.50
2022-08-17T19:55:01.415Z,97675.72
2022-08-17T19:58:03.099Z,97681.25
2022-08-17T20:00:31.282Z,97673.50
2022-08-17T20:03:06.650Z,97672.00
2022-08-17T20:06:01.406Z,97663.00
2022-08-17T20:08:27.105Z,97666.31
2022-08-17T20:10:58.679Z,97660.50
2022-08-17T20:13:34.054Z,97666.19
2022-08-17T20:16:02.170Z,97668.78
2022-08-17T20:18:37.884Z,97669.06
2022-08-17T20:21:20.226Z,97677.06
2022-08-17T20:24:11.333Z,97671.81
2022-08-17T20:26:51.238Z,97676.81
2022-08-17T20:29:37.283Z,97686.31
2022-08-17T20:32:17.271Z,97683.94
2022-08-17T20:34:47.152Z,97677.44
2022-08-17T20:37:13.511Z,97677.44
2022-08-17T20:39:43.973Z,97675.03
2022-08-17T20:42:22.300Z,97674.91
2022-08-17T20:45:02.218Z,97683.19
2022-08-17T20:47:47.125Z,97684.41
2022-08-17T20:50:56.321Z,97681.63
2022-08-17T20:53:47.458Z,97683.94
2022-08-17T20:56:47.251Z,97685.22
2022-08-17T20:59:26.883Z,97690.72
2022-08-17T21:02:06.638Z,97694.84
2022-08-17T21:04:52.259Z,97703.47
2022-08-17T21:07:43.666Z,97704.00
2022-08-17T21:10:20.443Z,97705.94
2022-08-17T21:13:04.800Z,97707.97
2022-08-17T21:15:51.741Z,97703.81
2022-08-17T21:19:00.309Z,97712.66
2022-08-17T21:21:46.507Z,97701.53
2022-08-17T21:24:43.786Z,97707.25
2022-08-17T21:27:40.339Z,97710.84
2022-08-17T21:30:10.235Z,97707.38
2022-08-17T21:32:39.737Z,97711.38
2022-08-17T21:35:11.179Z,97706.34
2022-08-17T21:37:42.220Z,97703.84
2022-08-17T21:40:19.503Z,97707.47
2022-08-17T21:42:50.458Z,97706.84
2022-08-17T21:45:25.906Z,97695.81
2022-08-17T21:48:11.001Z,97696.63
2022-08-17T21:50:38.746Z,97704.31
2022-08-17T21:53:05.721Z,97713.63
2022-08-17T21:55:35.906Z,97704.75
2022-08-17T21:58:19.176Z,97708.31
2022-08-17T22:00:45.649Z,97710.59
2022-08-17T22:03:24.122Z,97715.00
2022-08-17T22:05:51.396Z,97708.47
2022-08-17T22:08:21.974Z,97714.66
2022-08-17T22:10:50.886Z,97711.47
2022-08-17T22:13:17.681Z,97712.28
2022-08-17T22:15:48.054Z,97698.63
2022-08-17T22:18:25.434Z,97711.47
2022-08-17T22:20:55.613Z,97713.13
2022-08-17T22:23:47.782Z,97719.81
2022-08-17T22:26:16.516Z,97727.75
2022-08-17T22:28:49.556Z,97719.06
2022-08-17T22:31:19.888Z,97718.00
2022-08-17T22:34:02.174Z,97721.19
2022-08-17T22:36:33.673Z,97724.84
2022-08-17T22:39:23.023Z,97726.53
2022-08-17T22:41:55.721Z,97718.44
2022-08-17T22:44:31.846Z,97727.03
2022-08-17T22:47:28.349Z,97720.25
2022-08-17T22:50:00.163Z,97719.56
2022-08-17T22:53:01.187Z,97727.41
2022-08-17T22:55:49.097Z,97726.81
2022-08-17T22:58:37.943Z,97731.09
2022-08-17T23:01:36.795Z,97723.13
2022-08-17T23:04:06.526Z,97724.91
2022-08-17T23:06:35.239Z,97729.19
2022-08-17T23:09:04.055Z,97729.19
2022-08-17T23:11:47.855Z,97727.66
2022-08-17T23:14:18.344Z,97719.91
2022-08-17T23:16:44.941Z,97722.66
2022-08-17T23:19:13.554Z,97722.78
2022-08-17T23:21:40.161Z,97723.63
2022-08-17T23:24:08.858Z,97727.19
2022-08-17T23:26:38.037Z,97741.22
2022-08-17T23:29:06.416Z,97738.50
2022-08-17T23:31:34.767Z,97739.59
2022-08-17T23:34:03.016Z,97737.91
2022-08-17T23:36:31.623Z,97731.84
2022-08-17T23:38:58.412Z,97733.75
2022-08-17T23:41:28.540Z,97721.50
2022-08-17T23:43:55.371Z,97725.06
2022-08-17T23:46:25.066Z,97724.94
2022-08-17T23:48:54.083Z,97727.69
2022-08-17T23:51:25.297Z,97729.56
2022-08-17T23:53:56.000Z,97724.34
2022-08-17T23:56:26.020Z,97722.56
2022-08-17T23:58:55.200Z,97725.75
